sensor_id;sensor_type;location;lat;lon;timestamp;pressure;altitude;pressure_sealevel;temperature;humidity
32735;BME280;19112;51.076;3.706;2023-12-07T00:00:32;101838.94;;;5.91;86.79
32735;BME280;19112;51.076;3.706;2023-12-07T00:02:58;101875.16;;;6.13;85.78
32735;BME280;19112;51.076;3.706;2023-12-07T00:05:33;101830.31;;;5.92;86.87
32735;BME280;19112;51.076;3.706;2023-12-07T00:08:02;101765.03;;;5.52;86.31
32735;BME280;19112;51.076;3.706;2023-12-07T00:10:28;101599.72;;;4.69;85.05
32735;BME280;19112;51.076;3.706;2023-12-07T00:12:54;101821.41;;;6.02;85.03
32735;BME280;19112;51.076;3.706;2023-12-07T00:15:20;101782.31;;;5.77;86.30
32735;BME280;19112;51.076;3.706;2023-12-07T00:17:45;101708.78;;;5.30;85.78
32735;BME280;19112;51.076;3.706;2023-12-07T00:20:11;101867.53;;;6.16;86.07
32735;BME280;19112;51.076;3.706;2023-12-07T00:22:37;101905.97;;;6.32;85.95
32735;BME280;19112;51.076;3.706;2023-12-07T00:25:05;101860.09;;;6.09;86.51
32735;BME280;19112;51.076;3.706;2023-12-07T00:27:32;101336.22;;;3.16;86.41
32735;BME280;19112;51.076;3.706;2023-12-07T00:29:58;101757.13;;;5.51;86.93
32735;BME280;19112;51.076;3.706;2023-12-07T00:32:23;101911.50;;;6.37;87.32
32735;BME280;19112;51.076;3.706;2023-12-07T00:34:53;101626.34;;;4.79;87.48
32735;BME280;19112;51.076;3.706;2023-12-07T00:37:19;101752.59;;;5.48;87.91
32735;BME280;19112;51.076;3.706;2023-12-07T00:39:45;101742.97;;;5.47;88.25
32735;BME280;19112;51.076;3.706;2023-12-07T00:42:11;101779.00;;;5.79;87.91
32735;BME280;19112;51.076;3.706;2023-12-07T00:44:40;101837.84;;;6.27;87.70
32735;BME280;19112;51.076;3.706;2023-12-07T00:47:27;101811.47;;;6.23;87.11
32735;BME280;19112;51.076;3.706;2023-12-07T00:49:54;101868.84;;;6.49;85.87
32735;BME280;19112;51.076;3.706;2023-12-07T00:52:20;101780.00;;;6.20;86.28
32735;BME280;19112;51.076;3.706;2023-12-07T00:54:46;101716.25;;;5.63;86.59
32735;BME280;19112;51.076;3.706;2023-12-07T00:57:11;101756.63;;;5.95;86.97
32735;BME280;19112;51.076;3.706;2023-12-07T00:59:37;101761.94;;;6.23;85.86
32735;BME280;19112;51.076;3.706;2023-12-07T01:02:07;101730.38;;;6.18;85.45
32735;BME280;19112;51.076;3.706;2023-12-07T01:04:33;101828.72;;;6.74;86.31
32735;BME280;19112;51.076;3.706;2023-12-07T01:07:00;101762.16;;;6.26;87.43
32735;BME280;19112;51.076;3.706;2023-12-07T01:09:26;101789.41;;;6.44;86.92
32735;BME280;19112;51.076;3.706;2023-12-07T01:11:53;101863.53;;;6.88;87.09
32735;BME280;19112;51.076;3.706;2023-12-07T01:14:21;101745.19;;;6.06;87.06
32735;BME280;19112;51.076;3.706;2023-12-07T01:16:47;101878.41;;;6.89;86.75
32735;BME280;19112;51.076;3.706;2023-12-07T01:19:13;101609.81;;;5.16;86.47
32735;BME280;19112;51.076;3.706;2023-12-07T01:21:43;101802.75;;;6.49;86.54
32735;BME280;19112;51.076;3.706;2023-12-07T01:24:10;101855.91;;;6.91;86.42
32735;BME280;19112;51.076;3.706;2023-12-07T01:26:40;101731.06;;;6.29;85.84
32735;BME280;19112;51.076;3.706;2023-12-07T01:29:06;101819.69;;;6.82;85.40
32735;BME280;19112;51.076;3.706;2023-12-07T01:31:31;101624.78;;;5.85;85.01
32735;BME280;19112;51.076;3.706;2023-12-07T01:33:59;101810.91;;;6.95;85.78
32735;BME280;19112;51.076;3.706;2023-12-07T01:36:25;101857.63;;;7.18;85.79
32735;BME280;19112;51.076;3.706;2023-12-07T01:38:51;101805.63;;;6.80;86.21
32735;BME280;19112;51.076;3.706;2023-12-07T01:41:17;101745.66;;;6.53;86.54
32735;BME280;19112;51.076;3.706;2023-12-07T01:43:47;101738.03;;;6.56;86.14
32735;BME280;19112;51.076;3.706;2023-12-07T01:46:15;101840.00;;;7.14;86.01
32735;BME280;19112;51.076;3.706;2023-12-07T01:49:05;101853.81;;;7.26;85.40
32735;BME280;19112;51.076;3.706;2023-12-07T01:51:32;101838.97;;;7.12;84.98
32735;BME280;19112;51.076;3.706;2023-12-07T01:53:58;101810.59;;;7.03;85.70
32735;BME280;19112;51.076;3.706;2023-12-07T01:56:28;101730.59;;;6.63;84.90
32735;BME280;19112;51.076;3.706;2023-12-07T01:58:54;101760.88;;;6.74;85.06
32735;BME280;19112;51.076;3.706;2023-12-07T02:01:21;101806.69;;;6.97;85.22
32735;BME280;19112;51.076;3.706;2023-12-07T02:03:47;101797.09;;;6.82;85.03
32735;BME280;19112;51.076;3.706;2023-12-07T02:06:13;101759.00;;;6.71;85.66
32735;BME280;19112;51.076;3.706;2023-12-07T02:08:40;101808.00;;;6.90;86.47
32735;BME280;19112;51.076;3.706;2023-12-07T02:11:10;101731.53;;;6.37;86.94
32735;BME280;19112;51.076;3.706;2023-12-07T02:13:55;101819.44;;;6.92;86.71
32735;BME280;19112;51.076;3.706;2023-12-07T02:16:54;101729.84;;;6.50;86.69
32735;BME280;19112;51.076;3.706;2023-12-07T02:19:48;101868.88;;;7.30;86.10
32735;BME280;19112;51.076;3.706;2023-12-07T02:22:41;101836.34;;;7.25;86.13
32735;BME280;19112;51.076;3.706;2023-12-07T02:25:10;101863.31;;;7.39;86.54
32735;BME280;19112;51.076;3.706;2023-12-07T02:27:45;101862.97;;;7.20;86.54
32735;BME280;19112;51.076;3.706;2023-12-07T02:30:25;101698.16;;;6.31;86.80
32735;BME280;19112;51.076;3.706;2023-12-07T02:32:51;101833.28;;;7.04;86.92
32735;BME280;19112;51.076;3.706;2023-12-07T02:35:20;101857.00;;;7.35;87.05
32735;BME280;19112;51.076;3.706;2023-12-07T02:38:06;101718.22;;;6.73;86.23
32735;BME280;19112;51.076;3.706;2023-12-07T02:40:33;101849.91;;;7.48;85.65
32735;BME280;19112;51.076;3.706;2023-12-07T02:43:00;101741.13;;;6.92;85.72
32735;BME280;19112;51.076;3.706;2023-12-07T02:45:27;101786.44;;;7.21;85.18
32735;BME280;19112;51.076;3.706;2023-12-07T02:47:53;101811.78;;;7.37;85.44
32735;BME280;19112;51.076;3.706;2023-12-07T02:50:19;101774.50;;;7.11;86.45
32735;BME280;19112;51.076;3.706;2023-12-07T02:52:49;101852.22;;;7.56;85.84
32735;BME280;19112;51.076;3.706;2023-12-07T02:55:15;101829.03;;;7.48;85.06
32735;BME280;19112;51.076;3.706;2023-12-07T02:57:41;101761.69;;;7.01;85.48
32735;BME280;19112;51.076;3.706;2023-12-07T03:00:11;101719.69;;;6.83;85.41
32735;BME280;19112;51.076;3.706;2023-12-07T03:02:41;101786.91;;;7.28;84.87
32735;BME280;19112;51.076;3.706;2023-12-07T03:05:11;101796.53;;;7.29;85.94
32735;BME280;19112;51.076;3.706;2023-12-07T03:07:37;101820.38;;;7.49;85.83
32735;BME280;19112;51.076;3.706;2023-12-07T03:10:03;101736.31;;;6.98;85.70
32735;BME280;19112;51.076;3.706;2023-12-07T03:12:29;101760.28;;;7.06;85.25
32735;BME280;19112;51.076;3.706;2023-12-07T03:15:04;101782.69;;;7.30;84.77
32735;BME280;19112;51.076;3.706;2023-12-07T03:17:30;101815.88;;;7.46;84.70
32735;BME280;19112;51.076;3.706;2023-12-07T03:19:56;101798.25;;;7.29;85.16
32735;BME280;19112;51.076;3.706;2023-12-07T03:22:22;101886.16;;;7.84;85.03
32735;BME280;19112;51.076;3.706;2023-12-07T03:24:59;101872.59;;;7.77;83.89
32735;BME280;19112;51.076;3.706;2023-12-07T03:27:25;101815.88;;;7.46;84.50
32735;BME280;19112;51.076;3.706;2023-12-07T03:30:06;101793.91;;;7.29;83.94
32735;BME280;19112;51.076;3.706;2023-12-07T03:32:32;101864.91;;;7.65;84.50
32735;BME280;19112;51.076;3.706;2023-12-07T03:34:58;101677.59;;;6.64;83.95
32735;BME280;19112;51.076;3.706;2023-12-07T03:37:27;101833.44;;;7.49;84.72
32735;BME280;19112;51.076;3.706;2023-12-07T03:39:53;101867.25;;;7.60;85.41
32735;BME280;19112;51.076;3.706;2023-12-07T03:42:19;101852.88;;;7.67;84.91
32735;BME280;19112;51.076;3.706;2023-12-07T03:44:45;101768.06;;;7.19;84.82
32735;BME280;19112;51.076;3.706;2023-12-07T03:47:14;101639.06;;;6.45;83.95
32735;BME280;19112;51.076;3.706;2023-12-07T03:49:40;101716.06;;;6.81;83.78
32735;BME280;19112;51.076;3.706;2023-12-07T03:52:07;101855.53;;;7.54;84.43
32735;BME280;19112;51.076;3.706;2023-12-07T03:54:33;101773.38;;;7.21;84.45
32735;BME280;19112;51.076;3.706;2023-12-07T03:56:59;101765.50;;;7.06;85.50
32735;BME280;19112;51.076;3.706;2023-12-07T03:59:44;101744.03;;;6.97;85.43
32735;BME280;19112;51.076;3.706;2023-12-07T04:02:14;101685.72;;;6.68;84.84
32735;BME280;19112;51.076;3.706;2023-12-07T04:04:39;101727.19;;;6.92;84.11
32735;BME280;19112;51.076;3.706;2023-12-07T04:07:09;101664.09;;;6.56;83.54
32735;BME280;19112;51.076;3.706;2023-12-07T04:09:34;101658.81;;;6.41;85.14
32735;BME280;19112;51.076;3.706;2023-12-07T04:12:00;101754.19;;;6.92;84.62
32735;BME280;19112;51.076;3.706;2023-12-07T04:14:26;101768.84;;;7.03;84.35
32735;BME280;19112;51.076;3.706;2023-12-07T04:16:59;101723.88;;;6.94;84.05
32735;BME280;19112;51.076;3.706;2023-12-07T04:19:25;101781.78;;;7.30;84.98
32735;BME280;19112;51.076;3.706;2023-12-07T04:21:51;101777.06;;;7.24;84.08
32735;BME280;19112;51.076;3.706;2023-12-07T04:24:16;101759.22;;;7.17;85.04
32735;BME280;19112;51.076;3.706;2023-12-07T04:26:42;101736.41;;;7.00;84.27
32735;BME280;19112;51.076;3.706;2023-12-07T04:29:28;101716.06;;;6.81;84.13
32735;BME280;19112;51.076;3.706;2023-12-07T04:31:54;101730.88;;;6.67;83.25
32735;BME280;19112;51.076;3.706;2023-12-07T04:34:20;101696.53;;;6.46;83.52
32735;BME280;19112;51.076;3.706;2023-12-07T04:36:45;101704.31;;;6.60;83.97
32735;BME280;19112;51.076;3.706;2023-12-07T04:39:15;101684.59;;;6.50;84.50
32735;BME280;19112;51.076;3.706;2023-12-07T04:41:41;101800.84;;;7.14;85.86
32735;BME280;19112;51.076;3.706;2023-12-07T04:44:07;101519.41;;;5.67;85.65
32735;BME280;19112;51.076;3.706;2023-12-07T04:46:33;101671.34;;;6.47;85.96
32735;BME280;19112;51.076;3.706;2023-12-07T04:48:58;101779.59;;;6.95;85.30
32735;BME280;19112;51.076;3.706;2023-12-07T04:51:28;101758.03;;;6.84;84.49
32735;BME280;19112;51.076;3.706;2023-12-07T04:53:54;101671.94;;;6.43;85.39
32735;BME280;19112;51.076;3.706;2023-12-07T04:56:20;101619.47;;;6.23;85.01
32735;BME280;19112;51.076;3.706;2023-12-07T04:58:45;101779.59;;;7.23;84.81
32735;BME280;19112;51.076;3.706;2023-12-07T05:01:11;101702.41;;;6.85;85.40
32735;BME280;19112;51.076;3.706;2023-12-07T05:03:41;101786.72;;;7.40;85.78
32735;BME280;19112;51.076;3.706;2023-12-07T05:06:07;101643.59;;;6.62;85.69
32735;BME280;19112;51.076;3.706;2023-12-07T05:08:33;101690.72;;;6.78;85.29
32735;BME280;19112;51.076;3.706;2023-12-07T05:10:59;101650.25;;;6.57;84.54
32735;BME280;19112;51.076;3.706;2023-12-07T05:13:28;101650.19;;;6.70;85.23
32735;BME280;19112;51.076;3.706;2023-12-07T05:15:54;101689.44;;;6.72;86.47
32735;BME280;19112;51.076;3.706;2023-12-07T05:18:20;101702.84;;;6.78;86.26
32735;BME280;19112;51.076;3.706;2023-12-07T05:20:46;101679.66;;;6.82;86.48
32735;BME280;19112;51.076;3.706;2023-12-07T05:23:12;101716.47;;;7.15;86.91
32735;BME280;19112;51.076;3.706;2023-12-07T05:25:38;101697.00;;;7.10;86.67
32735;BME280;19112;51.076;3.706;2023-12-07T05:28:04;101695.47;;;7.14;86.21
32735;BME280;19112;51.076;3.706;2023-12-07T05:30:32;101601.13;;;6.50;86.98
32735;BME280;19112;51.076;3.706;2023-12-07T05:32:58;101583.03;;;6.53;86.03
32735;BME280;19112;51.076;3.706;2023-12-07T05:35:26;101741.63;;;7.43;86.50
32735;BME280;19112;51.076;3.706;2023-12-07T05:37:52;101682.75;;;7.05;85.40
32735;BME280;19112;51.076;3.706;2023-12-07T05:40:24;101712.94;;;7.15;86.59
32735;BME280;19112;51.076;3.706;2023-12-07T05:42:54;101708.63;;;7.15;86.65
32735;BME280;19112;51.076;3.706;2023-12-07T05:45:23;101652.47;;;6.79;87.12
32735;BME280;19112;51.076;3.706;2023-12-07T05:47:52;101680.13;;;6.90;87.01
32735;BME280;19112;51.076;3.706;2023-12-07T05:50:18;101634.44;;;6.69;86.77
32735;BME280;19112;51.076;3.706;2023-12-07T05:52:47;101675.78;;;6.91;86.51
32735;BME280;19112;51.076;3.706;2023-12-07T05:55:16;101679.59;;;6.96;86.31
32735;BME280;19112;51.076;3.706;2023-12-07T05:57:45;101689.38;;;6.85;86.92
32735;BME280;19112;51.076;3.706;2023-12-07T06:00:19;101691.16;;;6.86;85.96
32735;BME280;19112;51.076;3.706;2023-12-07T06:03:08;101669.63;;;6.75;85.68
32735;BME280;19112;51.076;3.706;2023-12-07T06:05:54;101638.53;;;6.50;85.17
32735;BME280;19112;51.076;3.706;2023-12-07T06:08:29;101728.63;;;7.15;86.37
32735;BME280;19112;51.076;3.706;2023-12-07T06:10:58;101742.94;;;7.21;86.37
32735;BME280;19112;51.076;3.706;2023-12-07T06:13:24;101640.19;;;6.63;86.01
32735;BME280;19112;51.076;3.706;2023-12-07T06:15:49;101684.25;;;6.87;85.19
32735;BME280;19112;51.076;3.706;2023-12-07T06:18:15;101707.25;;;7.07;85.45
32735;BME280;19112;51.076;3.706;2023-12-07T06:20:45;101675.38;;;6.70;84.23
32735;BME280;19112;51.076;3.706;2023-12-07T06:23:11;101764.28;;;7.29;85.92
32735;BME280;19112;51.076;3.706;2023-12-07T06:25:41;101520.88;;;6.03;85.11
32735;BME280;19112;51.076;3.706;2023-12-07T06:28:07;101692.41;;;7.06;84.86
32735;BME280;19112;51.076;3.706;2023-12-07T06:30:39;101582.28;;;6.41;85.09
32735;BME280;19112;51.076;3.706;2023-12-07T06:33:06;101725.75;;;7.25;85.76
32735;BME280;19112;51.076;3.706;2023-12-07T06:35:32;101750.09;;;7.39;85.71
32735;BME280;19112;51.076;3.706;2023-12-07T06:37:58;101613.19;;;6.63;84.83
32735;BME280;19112;51.076;3.706;2023-12-07T06:40:24;101727.63;;;7.27;85.24
32735;BME280;19112;51.076;3.706;2023-12-07T06:42:50;101702.50;;;7.29;85.16
32735;BME280;19112;51.076;3.706;2023-12-07T06:45:18;101694.94;;;7.34;85.58
32735;BME280;19112;51.076;3.706;2023-12-07T06:47:44;101646.28;;;6.92;85.30
32735;BME280;19112;51.076;3.706;2023-12-07T06:50:10;101695.59;;;7.30;85.30
32735;BME280;19112;51.076;3.706;2023-12-07T06:52:38;101671.88;;;7.12;85.88
32735;BME280;19112;51.076;3.706;2023-12-07T06:55:09;101730.63;;;7.48;85.71
32735;BME280;19112;51.076;3.706;2023-12-07T06:57:38;101664.50;;;7.05;86.10
32735;BME280;19112;51.076;3.706;2023-12-07T07:00:07;101663.41;;;7.16;86.45
32735;BME280;19112;51.076;3.706;2023-12-07T07:02:56;101600.72;;;6.87;85.82
32735;BME280;19112;51.076;3.706;2023-12-07T07:05:23;101723.53;;;7.46;85.62
32735;BME280;19112;51.076;3.706;2023-12-07T07:07:49;101644.56;;;6.92;85.68
32735;BME280;19112;51.076;3.706;2023-12-07T07:10:37;101585.63;;;6.53;86.43
32735;BME280;19112;51.076;3.706;2023-12-07T07:13:03;101587.28;;;6.66;86.65
32735;BME280;19112;51.076;3.706;2023-12-07T07:15:35;101647.44;;;6.97;86.96
32735;BME280;19112;51.076;3.706;2023-12-07T07:18:02;101677.72;;;7.08;85.75
32735;BME280;19112;51.076;3.706;2023-12-07T07:20:32;101680.00;;;7.17;85.92
32735;BME280;19112;51.076;3.706;2023-12-07T07:22:59;101585.19;;;6.60;85.83
32735;BME280;19112;51.076;3.706;2023-12-07T07:25:26;101701.53;;;7.27;86.16
32735;BME280;19112;51.076;3.706;2023-12-07T07:27:52;101633.38;;;6.80;86.43
32735;BME280;19112;51.076;3.706;2023-12-07T07:30:43;101678.53;;;7.07;85.77
32735;BME280;19112;51.076;3.706;2023-12-07T07:33:08;101613.19;;;6.63;85.95
32735;BME280;19112;51.076;3.706;2023-12-07T07:35:34;101655.19;;;6.95;86.88
32735;BME280;19112;51.076;3.706;2023-12-07T07:38:00;101585.72;;;6.54;86.13
32735;BME280;19112;51.076;3.706;2023-12-07T07:40:27;101579.97;;;6.60;86.22
32735;BME280;19112;51.076;3.706;2023-12-07T07:43:02;101587.38;;;6.67;85.47
32735;BME280;19112;51.076;3.706;2023-12-07T07:45:31;101713.72;;;7.42;85.15
32735;BME280;19112;51.076;3.706;2023-12-07T07:47:56;101622.72;;;7.05;86.15
32735;BME280;19112;51.076;3.706;2023-12-07T07:50:22;101660.84;;;7.31;86.21
32735;BME280;19112;51.076;3.706;2023-12-07T07:52:48;101578.41;;;6.92;85.60
32735;BME280;19112;51.076;3.706;2023-12-07T07:55:14;101644.91;;;7.41;85.32
32735;BME280;19112;51.076;3.706;2023-12-07T07:57:40;101579.59;;;6.97;85.48
32735;BME280;19112;51.076;3.706;2023-12-07T08:00:09;101581.09;;;7.08;84.61
32735;BME280;19112;51.076;3.706;2023-12-07T08:03:03;101671.66;;;7.52;85.25
32735;BME280;19112;51.076;3.706;2023-12-07T08:05:29;101597.16;;;7.14;85.48
32735;BME280;19112;51.076;3.706;2023-12-07T08:07:55;101700.53;;;7.55;86.01
32735;BME280;19112;51.076;3.706;2023-12-07T08:10:21;101645.31;;;7.34;86.32
32735;BME280;19112;51.076;3.706;2023-12-07T08:12:46;101698.84;;;7.70;86.42
32735;BME280;19112;51.076;3.706;2023-12-07T08:15:16;101660.38;;;7.53;86.80
32735;BME280;19112;51.076;3.706;2023-12-07T08:17:56;101659.28;;;7.64;85.63
32735;BME280;19112;51.076;3.706;2023-12-07T08:20:22;101629.72;;;7.50;85.49
32735;BME280;19112;51.076;3.706;2023-12-07T08:22:48;101691.25;;;7.75;86.19
32735;BME280;19112;51.076;3.706;2023-12-07T08:25:22;101541.31;;;6.97;85.89
32735;BME280;19112;51.076;3.706;2023-12-07T08:27:48;101591.00;;;7.28;85.98
32735;BME280;19112;51.076;3.706;2023-12-07T08:30:14;101698.09;;;7.87;86.42
32735;BME280;19112;51.076;3.706;2023-12-07T08:32:40;101652.25;;;7.63;86.02
32735;BME280;19112;51.076;3.706;2023-12-07T08:35:12;101573.28;;;7.08;86.73
32735;BME280;19112;51.076;3.706;2023-12-07T08:37:38;101579.78;;;7.15;86.45
32735;BME280;19112;51.076;3.706;2023-12-07T08:40:10;101422.34;;;6.12;85.80
32735;BME280;19112;51.076;3.706;2023-12-07T08:42:46;101479.22;;;6.33;85.16
32735;BME280;19112;51.076;3.706;2023-12-07T08:45:15;101591.31;;;7.03;86.27
32735;BME280;19112;51.076;3.706;2023-12-07T08:47:45;101669.72;;;7.49;86.08
32735;BME280;19112;51.076;3.706;2023-12-07T08:50:10;101613.47;;;7.25;85.59
32735;BME280;19112;51.076;3.706;2023-12-07T08:52:36;101532.69;;;6.83;85.87
32735;BME280;19112;51.076;3.706;2023-12-07T08:55:02;101696.22;;;7.70;86.42
32735;BME280;19112;51.076;3.706;2023-12-07T08:57:28;101688.03;;;7.49;85.90
32735;BME280;19112;51.076;3.706;2023-12-07T09:00:00;101513.97;;;6.76;86.34
32735;BME280;19112;51.076;3.706;2023-12-07T09:02:26;101619.94;;;7.31;85.13
32735;BME280;19112;51.076;3.706;2023-12-07T09:04:52;101635.50;;;7.45;86.14
32735;BME280;19112;51.076;3.706;2023-12-07T09:07:18;101606.94;;;7.18;85.91
32735;BME280;19112;51.076;3.706;2023-12-07T09:09:45;101639.28;;;7.50;85.78
32735;BME280;19112;51.076;3.706;2023-12-07T09:12:31;101539.66;;;6.98;86.35
32735;BME280;19112;51.076;3.706;2023-12-07T09:15:01;101671.16;;;7.88;85.53
32735;BME280;19112;51.076;3.706;2023-12-07T09:17:27;101576.44;;;7.32;86.09
32735;BME280;19112;51.076;3.706;2023-12-07T09:20:20;101574.63;;;7.46;85.90
32735;BME280;19112;51.076;3.706;2023-12-07T09:22:47;101560.22;;;7.38;86.02
32735;BME280;19112;51.076;3.706;2023-12-07T09:25:15;101486.69;;;6.86;85.71
32735;BME280;19112;51.076;3.706;2023-12-07T09:27:43;101530.19;;;7.15;85.83
32735;BME280;19112;51.076;3.706;2023-12-07T09:30:13;101640.53;;;7.71;85.67
32735;BME280;19112;51.076;3.706;2023-12-07T09:32:42;101613.88;;;7.62;85.79
32735;BME280;19112;51.076;3.706;2023-12-07T09:35:20;101524.22;;;7.17;85.92
32735;BME280;19112;51.076;3.706;2023-12-07T09:37:55;101563.06;;;7.57;86.59
32735;BME280;19112;51.076;3.706;2023-12-07T09:40:22;101411.22;;;6.44;85.24
32735;BME280;19112;51.076;3.706;2023-12-07T09:43:06;101428.13;;;6.80;85.97
32735;BME280;19112;51.076;3.706;2023-12-07T09:45:35;101544.88;;;7.44;86.16
32735;BME280;19112;51.076;3.706;2023-12-07T09:48:09;101421.47;;;6.86;86.71
32735;BME280;19112;51.076;3.706;2023-12-07T09:50:39;101509.56;;;7.50;86.78
32735;BME280;19112;51.076;3.706;2023-12-07T09:53:42;101607.94;;;7.96;85.19
32735;BME280;19112;51.076;3.706;2023-12-07T09:56:17;101551.25;;;7.64;85.50
32735;BME280;19112;51.076;3.706;2023-12-07T09:58:43;101611.31;;;8.09;85.25
32735;BME280;19112;51.076;3.706;2023-12-07T10:01:12;101545.94;;;7.62;85.09
32735;BME280;19112;51.076;3.706;2023-12-07T10:03:40;101517.31;;;7.49;84.64
32735;BME280;19112;51.076;3.706;2023-12-07T10:06:10;101603.94;;;8.02;85.78
32735;BME280;19112;51.076;3.706;2023-12-07T10:08:36;101536.88;;;7.72;85.38
32735;BME280;19112;51.076;3.706;2023-12-07T10:11:25;101598.59;;;8.16;85.21
32735;BME280;19112;51.076;3.706;2023-12-07T10:14:11;101524.75;;;7.88;86.05
32735;BME280;19112;51.076;3.706;2023-12-07T10:16:37;101481.41;;;7.61;85.41
32735;BME280;19112;51.076;3.706;2023-12-07T10:19:16;101441.28;;;7.44;85.37
32735;BME280;19112;51.076;3.706;2023-12-07T10:21:55;101445.22;;;7.36;84.16
32735;BME280;19112;51.076;3.706;2023-12-07T10:24:23;101107.84;;;5.36;84.42
32735;BME280;19112;51.076;3.706;2023-12-07T10:26:51;101210.63;;;6.01;84.29
32735;BME280;19112;51.076;3.706;2023-12-07T10:29:18;101220.50;;;6.07;84.29
32735;BME280;19112;51.076;3.706;2023-12-07T10:31:49;101426.16;;;7.22;83.85
32735;BME280;19112;51.076;3.706;2023-12-07T10:34:20;101523.38;;;7.95;84.90
32735;BME280;19112;51.076;3.706;2023-12-07T10:36:52;101373.06;;;7.07;84.63
32735;BME280;19112;51.076;3.706;2023-12-07T10:39:30;101348.84;;;6.93;84.52
32735;BME280;19112;51.076;3.706;2023-12-07T10:42:02;101553.06;;;8.12;84.84
32735;BME280;19112;51.076;3.706;2023-12-07T10:44:33;101420.66;;;7.49;85.09
32735;BME280;19112;51.076;3.706;2023-12-07T10:47:10;101403.25;;;7.49;84.89
32735;BME280;19112;51.076;3.706;2023-12-07T10:49:43;101256.91;;;6.51;85.07
32735;BME280;19112;51.076;3.706;2023-12-07T10:52:13;101307.16;;;6.95;84.09
32735;BME280;19112;51.076;3.706;2023-12-07T10:55:28;101490.47;;;8.15;84.79
32735;BME280;19112;51.076;3.706;2023-12-07T10:57:55;101311.25;;;7.22;85.54
32735;BME280;19112;51.076;3.706;2023-12-07T11:00:22;101388.16;;;7.60;85.48
32735;BME280;19112;51.076;3.706;2023-12-07T11:03:04;101505.75;;;8.40;85.45
32735;BME280;19112;51.076;3.706;2023-12-07T11:05:30;101351.19;;;7.52;84.17
32735;BME280;19112;51.076;3.706;2023-12-07T11:08:09;101393.63;;;7.97;84.98
32735;BME280;19112;51.076;3.706;2023-12-07T11:10:52;101372.97;;;7.85;84.49
32735;BME280;19112;51.076;3.706;2023-12-07T11:13:38;101468.06;;;8.53;85.68
32735;BME280;19112;51.076;3.706;2023-12-07T11:16:06;101228.47;;;7.03;85.47
32735;BME280;19112;51.076;3.706;2023-12-07T11:18:32;101083.06;;;6.36;85.19
32735;BME280;19112;51.076;3.706;2023-12-07T11:20:59;101394.38;;;8.45;84.57
32735;BME280;19112;51.076;3.706;2023-12-07T11:23:29;101356.94;;;8.30;83.49
32735;BME280;19112;51.076;3.706;2023-12-07T11:25:56;101312.03;;;8.21;84.78
32735;BME280;19112;51.076;3.706;2023-12-07T11:28:37;101276.59;;;8.09;84.23
32735;BME280;19112;51.076;3.706;2023-12-07T11:31:07;101105.88;;;6.89;83.72
32735;BME280;19112;51.076;3.706;2023-12-07T11:33:37;101370.94;;;8.64;83.49
32735;BME280;19112;51.076;3.706;2023-12-07T11:38:30;101319.34;;;8.44;84.77
32735;BME280;19112;51.076;3.706;2023-12-07T11:41:04;101344.63;;;8.79;84.76
32735;BME280;19112;51.076;3.706;2023-12-07T11:46:12;101321.13;;;8.63;82.58
32735;BME280;19112;51.076;3.706;2023-12-07T11:49:02;101270.56;;;8.46;83.06
32735;BME280;19112;51.076;3.706;2023-12-07T11:51:31;101375.91;;;9.13;82.92
32735;BME280;19112;51.076;3.706;2023-12-07T11:53:57;101322.84;;;8.80;83.50
32735;BME280;19112;51.076;3.706;2023-12-07T11:56:26;101212.44;;;8.16;83.43
32735;BME280;19112;51.076;3.706;2023-12-07T11:58:52;101354.72;;;8.89;83.51
32735;BME280;19112;51.076;3.706;2023-12-07T12:01:32;101328.59;;;8.91;83.72
32735;BME280;19112;51.076;3.706;2023-12-07T12:04:17;101283.84;;;8.86;83.82
32735;BME280;19112;51.076;3.706;2023-12-07T12:06:48;101275.81;;;8.64;82.11
32735;BME280;19112;51.076;3.706;2023-12-07T12:09:18;101273.09;;;8.80;83.25
32735;BME280;19112;51.076;3.706;2023-12-07T12:11:45;101222.59;;;8.46;84.07
32735;BME280;19112;51.076;3.706;2023-12-07T12:14:18;101188.88;;;8.34;83.47
32735;BME280;19112;51.076;3.706;2023-12-07T12:17:04;101344.25;;;9.46;83.28
32735;BME280;19112;51.076;3.706;2023-12-07T12:19:50;101276.81;;;9.23;82.61
32735;BME280;19112;51.076;3.706;2023-12-07T12:22:20;101319.53;;;9.41;83.11
32735;BME280;19112;51.076;3.706;2023-12-07T12:24:46;101303.00;;;9.42;82.87
32735;BME280;19112;51.076;3.706;2023-12-07T12:27:18;101288.31;;;9.45;82.78
32735;BME280;19112;51.076;3.706;2023-12-07T12:29:44;101318.16;;;9.68;83.00
32735;BME280;19112;51.076;3.706;2023-12-07T12:32:43;101194.47;;;8.79;81.39
32735;BME280;19112;51.076;3.706;2023-12-07T12:35:30;101154.16;;;8.56;81.38
32735;BME280;19112;51.076;3.706;2023-12-07T12:37:56;101299.56;;;9.43;83.12
32735;BME280;19112;51.076;3.706;2023-12-07T12:40:23;101227.34;;;9.30;83.97
32735;BME280;19112;51.076;3.706;2023-12-07T12:43:00;101140.91;;;8.90;82.76
32735;BME280;19112;51.076;3.706;2023-12-07T12:45:28;101145.94;;;8.85;82.85
32735;BME280;19112;51.076;3.706;2023-12-07T12:48:01;101147.03;;;8.90;82.23
32735;BME280;19112;51.076;3.706;2023-12-07T12:50:44;101180.25;;;9.11;80.83
32735;BME280;19112;51.076;3.706;2023-12-07T12:53:12;101251.53;;;9.63;81.88
32735;BME280;19112;51.076;3.706;2023-12-07T12:56:04;101244.50;;;9.62;80.81
32735;BME280;19112;51.076;3.706;2023-12-07T12:58:30;101264.47;;;9.59;81.22
32735;BME280;19112;51.076;3.706;2023-12-07T13:00:56;101277.03;;;9.67;79.18
32735;BME280;19112;51.076;3.706;2023-12-07T13:03:22;101282.16;;;9.85;80.87
32735;BME280;19112;51.076;3.706;2023-12-07T13:05:51;101157.00;;;9.18;80.82
32735;BME280;19112;51.076;3.706;2023-12-07T13:08:17;101214.44;;;9.54;80.42
32735;BME280;19112;51.076;3.706;2023-12-07T13:10:43;101162.59;;;9.07;81.13
32735;BME280;19112;51.076;3.706;2023-12-07T13:13:08;101115.72;;;8.93;81.93
32735;BME280;19112;51.076;3.706;2023-12-07T13:15:34;101275.50;;;9.92;81.52
32735;BME280;19112;51.076;3.706;2023-12-07T13:18:00;101162.56;;;9.26;79.88
32735;BME280;19112;51.076;3.706;2023-12-07T13:20:26;101201.88;;;9.47;80.29